createdAt,value
2023-01-02T00:00:15.865Z,381.20
2023-01-02T00:02:49.387Z,365.25
2023-01-02T00:05:18.364Z,343.02
2023-01-02T00:07:48.502Z,385.55
2023-01-02T00:10:17.257Z,400.63
2023-01-02T00:12:45.808Z,411.85
2023-01-02T00:15:14.384Z,389.30
2023-01-02T00:17:47.835Z,389.38
2023-01-02T00:20:16.893Z,331.80
2023-01-02T00:22:45.603Z,357.98
2023-01-02T00:25:15.925Z,376.25
2023-01-02T00:27:44.766Z,377.88
2023-01-02T00:30:14.484Z,353.58
2023-01-02T00:32:43.579Z,409.35
2023-01-02T00:35:12.397Z,350.45
2023-01-02T00:37:41.504Z,381.30
2023-01-02T00:40:13.984Z,343.05
2023-01-02T00:42:44.578Z,387.83
2023-01-02T00:45:13.482Z,332.55
2023-01-02T00:47:42.467Z,350.23
2023-01-02T00:50:11.197Z,400.42
2023-01-02T00:52:39.934Z,398.52
2023-01-02T00:55:09.170Z,363.05
2023-01-02T00:57:37.987Z,370.77
2023-01-02T01:00:09.686Z,364.42
2023-01-02T01:02:38.339Z,354.83
2023-01-02T01:05:08.602Z,364.60
2023-01-02T01:07:37.319Z,350.90
2023-01-02T01:10:06.662Z,347.90
2023-01-02T01:12:35.180Z,348.33
2023-01-02T01:15:03.907Z,317.65
2023-01-02T01:17:35.194Z,342.80
2023-01-02T01:20:03.813Z,332.88
2023-01-02T01:22:32.312Z,359.55
2023-01-02T01:25:00.877Z,414.40
2023-01-02T01:27:29.514Z,410.25
2023-01-02T01:29:58.135Z,375.17
2023-01-02T01:32:26.735Z,371.70
2023-01-02T01:34:56.730Z,381.88
2023-01-02T01:37:25.370Z,329.38
2023-01-02T01:39:56.795Z,330.85
2023-01-02T01:42:25.774Z,344.10
2023-01-02T01:44:55.815Z,316.52
2023-01-02T01:47:35.976Z,350.50
2023-01-02T01:50:08.749Z,339.60
2023-01-02T01:52:39.485Z,312.27
2023-01-02T01:55:11.654Z,322.27
2023-01-02T01:57:43.515Z,275.00
2023-01-02T02:00:13.467Z,307.42
2023-01-02T02:02:44.162Z,301.00
2023-01-02T02:05:18.440Z,363.73
2023-01-02T02:07:51.893Z,307.92
2023-01-02T02:10:20.741Z,299.75
2023-01-02T02:12:50.869Z,358.13
2023-01-02T02:15:22.006Z,363.88
2023-01-02T02:17:57.721Z,354.83
2023-01-02T02:20:35.214Z,341.60
2023-01-02T02:23:29.588Z,336.08
2023-01-02T02:26:13.795Z,320.58
2023-01-02T02:29:21.595Z,293.95
2023-01-02T02:31:56.043Z,327.85
2023-01-02T02:36:58.751Z,290.10
2023-01-02T02:39:35.523Z,302.98
2023-01-02T02:42:11.281Z,282.95
2023-01-02T02:44:46.660Z,346.08
2023-01-02T02:47:23.452Z,297.00
2023-01-02T02:49:58.329Z,362.52
2023-01-02T02:52:30.379Z,353.50
2023-01-02T02:55:04.029Z,364.20
2023-01-02T02:57:33.525Z,304.75
2023-01-02T03:00:02.149Z,373.40
2023-01-02T03:02:32.368Z,306.65
2023-01-02T03:05:06.039Z,346.80
2023-01-02T03:07:39.752Z,310.23
2023-01-02T03:10:17.032Z,342.75
2023-01-02T03:12:51.568Z,363.48
2023-01-02T03:18:00.812Z,327.63
2023-01-02T03:20:35.208Z,284.80
2023-01-02T03:25:35.321Z,308.60
2023-01-02T03:28:06.885Z,288.63
2023-01-02T03:30:37.871Z,261.23
2023-01-02T03:33:10.240Z,272.88
2023-01-02T03:35:43.498Z,308.80
2023-01-02T03:38:16.993Z,301.67
2023-01-02T03:40:47.857Z,313.17
2023-01-02T03:43:20.030Z,323.00
2023-01-02T03:45:52.547Z,298.23
2023-01-02T03:48:28.227Z,349.63
2023-01-02T03:50:59.208Z,344.20
2023-01-02T03:53:28.698Z,314.52
2023-01-02T03:56:03.446Z,338.67
2023-01-02T03:58:40.454Z,285.88
2023-01-02T04:01:11.637Z,272.83
2023-01-02T04:03:47.745Z,294.58
2023-01-02T04:06:18.349Z,282.00
2023-01-02T04:08:49.404Z,264.70
2023-01-02T04:11:20.470Z,311.08
2023-01-02T04:13:51.965Z,275.10
2023-01-02T04:16:24.483Z,271.08
2023-01-02T04:18:57.363Z,250.48
2023-01-02T04:21:27.910Z,287.25
2023-01-02T04:24:00.655Z,293.38
2023-01-02T04:26:32.546Z,267.85
2023-01-02T04:29:01.214Z,434.20
2023-01-02T04:31:33.893Z,280.63
2023-01-02T04:34:04.648Z,347.75
2023-01-02T04:36:33.623Z,363.55
2023-01-02T04:39:02.283Z,266.00
2023-01-02T04:41:31.490Z,327.02
2023-01-02T04:44:01.246Z,290.95
2023-01-02T04:46:30.683Z,272.40
2023-01-02T04:48:59.435Z,272.65
2023-01-02T04:51:29.473Z,278.90
2023-01-02T04:53:58.144Z,253.20
2023-01-02T04:56:26.791Z,302.85
2023-01-02T04:58:55.380Z,264.92
2023-01-02T05:01:24.557Z,303.23
2023-01-02T05:03:53.728Z,280.73
2023-01-02T05:06:22.516Z,296.33
2023-01-02T05:08:52.358Z,257.55
2023-01-02T05:11:21.881Z,316.02
2023-01-02T05:13:50.562Z,316.83
2023-01-02T05:16:19.554Z,252.45
2023-01-02T05:18:48.188Z,288.42
2023-01-02T05:21:34.420Z,266.90
2023-01-02T05:24:05.871Z,284.98
2023-01-02T05:26:34.472Z,272.77
2023-01-02T05:29:03.399Z,257.00
2023-01-02T05:31:35.018Z,268.30
2023-01-02T05:34:03.628Z,292.45
2023-01-02T05:36:32.238Z,256.83
2023-01-02T05:39:01.778Z,236.88
2023-01-02T05:41:31.938Z,356.60
2023-01-02T05:44:00.501Z,265.42
2023-01-02T05:46:29.294Z,259.58
2023-01-02T05:48:57.802Z,316.05
2023-01-02T05:51:26.260Z,254.57
2023-01-02T05:53:55.620Z,287.52
2023-01-02T05:56:24.162Z,313.25
2023-01-02T05:58:54.017Z,249.57
2023-01-02T06:01:24.040Z,306.27
2023-01-02T06:03:54.119Z,237.27
2023-01-02T06:06:24.348Z,246.73
2023-01-02T06:08:53.083Z,254.63
2023-01-02T06:11:21.606Z,311.98
2023-01-02T06:13:50.450Z,291.58
2023-01-02T06:16:20.979Z,355.55
2023-01-02T06:18:53.950Z,254.05
2023-01-02T06:21:23.385Z,265.08
2023-01-02T06:23:56.283Z,292.98
2023-01-02T06:26:31.204Z,255.30
2023-01-02T06:29:03.036Z,455.25
2023-01-02T06:31:34.084Z,281.85
2023-01-02T06:34:29.838Z,262.20
2023-01-02T06:36:58.523Z,240.02
2023-01-02T06:39:27.449Z,286.98
2023-01-02T06:41:55.942Z,272.80
2023-01-02T06:44:24.467Z,258.88
2023-01-02T06:46:54.498Z,283.45
2023-01-02T06:49:23.215Z,458.63
2023-01-02T06:51:51.806Z,277.10
2023-01-02T06:54:25.653Z,282.65
2023-01-02T06:56:57.296Z,259.80
2023-01-02T06:59:26.214Z,266.70
2023-01-02T07:35:08.456Z,245.55
2023-01-02T07:37:36.951Z,256.90
2023-01-02T07:40:05.891Z,261.20
2023-01-02T07:42:34.243Z,268.60
2023-01-02T07:45:02.621Z,261.88
2023-01-02T07:47:31.063Z,283.25
2023-01-02T07:49:59.468Z,301.13
2023-01-02T07:52:29.311Z,324.02
2023-01-02T07:54:57.743Z,290.98
2023-01-02T07:57:26.184Z,279.48
2023-01-02T08:03:37.296Z,240.57
2023-01-02T08:06:26.211Z,340.00
2023-01-02T08:08:56.247Z,328.33
2023-01-02T08:11:24.904Z,315.08
2023-01-02T08:13:56.459Z,289.30
2023-01-02T08:16:25.215Z,355.67
2023-01-02T08:18:55.982Z,377.48
2023-01-02T08:21:25.336Z,271.85
2023-01-02T08:23:55.843Z,364.23
2023-01-02T08:26:25.515Z,383.92
2023-01-02T08:28:54.576Z,340.27
2023-01-02T08:31:52.079Z,316.30
2023-01-02T08:34:20.831Z,377.35
2023-01-02T08:37:08.539Z,278.63
2023-01-02T08:39:40.902Z,398.25
2023-01-02T08:42:09.688Z,444.17
2023-01-02T08:44:39.588Z,339.05
2023-01-02T08:47:08.608Z,307.67
2023-01-02T08:49:37.151Z,342.48
2023-01-02T08:52:07.876Z,316.33
2023-01-02T08:54:38.218Z,433.17
2023-01-02T08:57:07.053Z,361.02
2023-01-02T08:59:35.699Z,737.42
2023-01-02T09:02:07.125Z,366.00
2023-01-02T09:04:35.979Z,354.88
2023-01-02T09:07:04.717Z,394.70
2023-01-02T09:09:33.388Z,352.10
2023-01-02T09:12:24.822Z,386.15
2023-01-02T09:14:53.856Z,362.35
2023-01-02T09:17:22.453Z,422.95
2023-01-02T09:27:31.205Z,302.15
2023-01-02T09:29:59.952Z,268.77
2023-01-02T09:32:30.712Z,387.77
2023-01-02T09:34:59.562Z,292.45
2023-01-02T09:37:28.604Z,314.90
2023-01-02T09:39:57.717Z,390.00
2023-01-02T09:42:26.537Z,321.33
2023-01-02T09:44:58.733Z,329.05
2023-01-02T09:47:30.669Z,317.48
2023-01-02T09:50:03.611Z,308.70
2023-01-02T09:52:35.601Z,295.25
2023-01-02T09:55:05.782Z,325.52
2023-01-02T09:57:40.533Z,308.60
2023-01-02T10:00:30.892Z,384.17
2023-01-02T10:03:11.707Z,401.50
2023-01-02T10:06:07.388Z,374.90
2023-01-02T10:08:45.687Z,416.92
2023-01-02T10:11:30.833Z,471.13
2023-01-02T10:14:19.204Z,344.73
2023-01-02T10:16:52.848Z,309.70
2023-01-02T10:19:25.423Z,354.17
2023-01-02T10:21:57.073Z,354.73
2023-01-02T10:24:37.253Z,366.13
2023-01-02T10:27:07.220Z,356.75
2023-01-02T10:29:39.756Z,330.27
2023-01-02T10:32:14.576Z,397.35
2023-01-02T10:34:46.173Z,321.63
2023-01-02T10:37:19.749Z,365.10
2023-01-02T10:39:50.890Z,373.90
2023-01-02T10:42:19.662Z,365.10
2023-01-02T10:44:49.440Z,372.15
2023-01-02T10:47:23.741Z,435.80
2023-01-02T10:49:57.487Z,379.58
2023-01-02T10:52:38.760Z,391.67
2023-01-02T10:55:08.450Z,363.23
2023-01-02T10:58:05.519Z,373.33
2023-01-02T11:00:35.994Z,591.55
2023-01-02T11:03:14.849Z,281.17
2023-01-02T11:05:47.572Z,339.98
2023-01-02T11:08:17.743Z,299.98
2023-01-02T11:10:46.584Z,331.08
2023-01-02T11:13:19.899Z,264.10
2023-01-02T11:16:02.099Z,347.17
2023-01-02T11:53:55.174Z,263.80
2023-01-02T12:07:47.279Z,296.90
2023-01-02T12:10:55.572Z,314.65
2023-01-02T12:13:54.898Z,321.48
2023-01-02T12:16:37.848Z,354.88
2023-01-02T12:20:05.687Z,318.67
2023-01-02T12:23:44.468Z,334.35
2023-01-02T12:56:13.082Z,294.55
2023-01-02T12:59:01.885Z,351.80
2023-01-02T13:19:02.756Z,393.02
2023-01-02T13:21:37.731Z,284.67
2023-01-02T13:24:06.847Z,405.30
2023-01-02T13:26:38.125Z,337.55
2023-01-02T13:29:29.178Z,338.35
2023-01-02T13:32:28.411Z,291.60
2023-01-02T13:35:00.566Z,343.13
2023-01-02T13:37:31.207Z,303.25
2023-01-02T13:40:08.134Z,348.55
2023-01-02T13:42:57.670Z,440.58
2023-01-02T13:45:37.584Z,334.08
2023-01-02T13:48:23.297Z,352.83
2023-01-02T13:51:17.755Z,376.23
2023-01-02T13:54:01.428Z,341.90
2023-01-02T13:56:35.953Z,294.48
2023-01-02T13:59:42.062Z,271.67
2023-01-02T14:02:21.546Z,321.50
2023-01-02T14:04:54.734Z,355.02
2023-01-02T14:07:48.959Z,292.13
2023-01-02T14:10:55.599Z,283.00
2023-01-02T14:13:31.942Z,268.92
2023-01-02T14:16:29.298Z,255.70
2023-01-02T14:19:06.517Z,323.10
2023-01-02T14:21:39.274Z,351.42
2023-01-02T14:24:18.097Z,370.42
2023-01-02T14:26:53.642Z,311.95
2023-01-02T14:29:24.011Z,371.48
2023-01-02T14:32:03.818Z,295.50
2023-01-02T14:34:33.141Z,364.77
2023-01-02T14:37:04.189Z,363.90
2023-01-02T14:39:36.718Z,300.73
2023-01-02T14:42:36.127Z,363.42
2023-01-02T14:45:07.693Z,418.90
2023-01-02T14:47:39.270Z,415.40
2023-01-02T14:50:12.991Z,336.55
2023-01-02T14:52:46.362Z,355.52
2023-01-02T14:55:17.630Z,361.48
2023-01-02T14:57:49.016Z,371.58
2023-01-02T15:00:30.740Z,601.72
2023-01-02T15:03:18.619Z,515.50
2023-01-02T15:05:50.704Z,394.00
2023-01-02T15:08:22.205Z,299.73
2023-01-02T15:10:58.783Z,584.05
2023-01-02T15:13:29.309Z,363.77
2023-01-02T15:16:00.785Z,365.55
2023-01-02T15:18:30.643Z,413.23
2023-01-02T15:21:05.869Z,578.45
2023-01-02T15:23:36.160Z,355.42
2023-01-02T15:26:31.739Z,350.42
2023-01-02T15:28:57.817Z,353.88
2023-01-02T15:31:26.785Z,362.77
2023-01-02T15:33:56.498Z,336.52
2023-01-02T15:36:36.969Z,344.10
2023-01-02T15:39:15.765Z,308.08
2023-01-02T15:41:46.414Z,335.40
2023-01-02T15:44:32.634Z,383.90
2023-01-02T15:47:01.593Z,287.17
2023-01-02T15:49:33.115Z,372.67
2023-01-02T15:52:02.871Z,298.30
2023-01-02T15:54:37.162Z,477.58
2023-01-02T15:57:14.935Z,286.42
2023-01-02T15:59:43.933Z,352.15
2023-01-02T16:02:32.219Z,305.05
2023-01-02T16:05:15.868Z,397.15
2023-01-02T16:07:49.495Z,337.30
2023-01-02T16:10:22.728Z,390.17
2023-01-02T16:12:52.930Z,339.00
2023-01-02T16:15:24.241Z,432.25
2023-01-02T16:17:53.325Z,514.42
2023-01-02T16:20:23.049Z,449.10
2023-01-02T16:22:57.810Z,422.95
2023-01-02T16:25:30.911Z,461.65
2023-01-02T16:28:03.285Z,641.30
2023-01-02T16:30:39.120Z,515.63
2023-01-02T16:33:25.365Z,427.77
2023-01-02T16:36:00.623Z,596.13
2023-01-02T16:38:31.673Z,496.20
2023-01-02T16:41:12.976Z,482.42
2023-01-02T16:43:50.494Z,618.67
2023-01-02T16:46:19.244Z,581.13
2023-01-02T16:48:49.188Z,572.63
2023-01-02T17:10:27.603Z,712.70
2023-01-02T17:13:23.897Z,595.38
2023-01-02T17:16:25.504Z,530.25
2023-01-02T17:18:53.993Z,594.10
2023-01-02T17:21:25.155Z,558.42
2023-01-02T17:23:57.651Z,567.38
2023-01-02T17:26:27.680Z,614.45
2023-01-02T17:28:57.409Z,549.33
2023-01-02T17:31:26.573Z,552.15
2023-01-02T17:33:55.821Z,713.83
2023-01-02T17:36:24.570Z,568.00
2023-01-02T17:38:53.154Z,576.67
2023-01-02T17:41:21.898Z,607.67
2023-01-02T17:44:01.749Z,634.42
2023-01-02T17:47:09.221Z,642.85
2023-01-02T17:49:20.999Z,554.83
2023-01-02T17:51:49.581Z,599.60
2023-01-02T17:54:18.293Z,591.72
2023-01-02T17:56:46.875Z,595.70
2023-01-02T17:59:19.250Z,574.58
2023-01-02T18:01:48.029Z,580.03
2023-01-02T18:04:17.123Z,600.05
2023-01-02T18:06:45.829Z,564.08
2023-01-02T18:09:14.515Z,553.25
2023-01-02T18:11:43.121Z,558.55
2023-01-02T18:14:18.794Z,571.80
2023-01-02T18:16:50.742Z,605.15
2023-01-02T18:19:22.062Z,565.25
2023-01-02T18:21:51.031Z,579.60
2023-01-02T18:24:25.334Z,565.08
2023-01-02T18:26:58.184Z,566.83
2023-01-02T18:29:39.210Z,574.35
2023-01-02T18:32:31.866Z,579.08
2023-01-02T18:35:10.958Z,573.30
2023-01-02T18:37:50.415Z,553.20
2023-01-02T18:40:27.711Z,718.47
2023-01-02T18:43:06.989Z,536.08
2023-01-02T18:45:37.306Z,571.95
2023-01-02T18:48:15.625Z,567.20
2023-01-02T18:50:46.557Z,524.40
2023-01-02T18:53:19.317Z,576.97
2023-01-02T18:55:48.341Z,549.03
2023-01-02T18:58:40.974Z,546.95
2023-01-02T19:01:31.690Z,660.80
2023-01-02T19:04:27.271Z,493.20
2023-01-02T19:06:58.715Z,503.20
2023-01-02T19:09:31.745Z,493.70
2023-01-02T19:12:38.059Z,516.45
2023-01-02T19:15:35.974Z,463.35
2023-01-02T19:18:28.036Z,536.38
2023-01-02T19:21:00.616Z,489.50
2023-01-02T19:23:31.310Z,458.10
2023-01-02T19:26:09.853Z,443.42
2023-01-02T19:28:38.793Z,419.92
2023-01-02T19:31:14.528Z,460.92
2023-01-02T19:33:48.081Z,475.75
2023-01-02T19:36:18.880Z,419.30
2023-01-02T19:38:48.829Z,462.38
2023-01-02T19:41:37.697Z,465.17
2023-01-02T19:44:06.150Z,512.75
2023-01-02T19:46:34.702Z,540.78
2023-01-02T19:49:05.064Z,404.17
2023-01-02T19:51:33.717Z,621.50
2023-01-02T19:54:04.562Z,473.75
2023-01-02T19:56:33.248Z,453.92
2023-01-02T19:59:01.713Z,484.15
2023-01-02T20:01:30.294Z,499.75
2023-01-02T20:03:59.013Z,421.27
2023-01-02T20:06:29.018Z,484.95
2023-01-02T20:08:57.641Z,394.25
2023-01-02T20:11:43.382Z,435.30
2023-01-02T20:14:11.962Z,457.00
2023-01-02T20:16:40.697Z,442.02
2023-01-02T20:19:09.531Z,466.88
2023-01-02T20:21:39.786Z,460.48
2023-01-02T20:24:08.852Z,488.33
2023-01-02T20:26:37.427Z,437.35
2023-01-02T20:29:05.990Z,401.90
2023-01-02T20:31:34.785Z,398.40
2023-01-02T20:34:03.507Z,428.50
2023-01-02T20:36:31.947Z,394.30
2023-01-02T20:39:01.902Z,495.58
2023-01-02T20:41:30.488Z,514.45
2023-01-02T20:44:00.174Z,488.17
2023-01-02T20:46:28.817Z,433.80
2023-01-02T20:48:57.623Z,428.88
2023-01-02T20:51:26.265Z,439.67
2023-01-02T20:53:55.081Z,650.20
2023-01-02T20:56:25.820Z,411.00
2023-01-02T20:58:54.502Z,422.30
2023-01-02T21:01:23.810Z,469.73
2023-01-02T21:03:52.695Z,413.73
2023-01-02T21:06:21.784Z,429.90
2023-01-02T21:08:50.637Z,428.50
2023-01-02T21:11:19.381Z,423.10
2023-01-02T21:13:49.318Z,482.73
2023-01-02T21:16:17.903Z,383.80
2023-01-02T21:18:46.544Z,349.38
2023-01-02T21:21:33.599Z,425.35
2023-01-02T21:24:02.656Z,436.42
2023-01-02T21:26:31.427Z,452.63
2023-01-02T21:29:03.263Z,483.52
2023-01-02T21:31:31.937Z,412.25
2023-01-02T21:34:00.752Z,383.55
2023-01-02T21:36:31.699Z,443.55
2023-01-02T21:39:00.644Z,422.42
2023-01-02T21:41:46.736Z,506.75
2023-01-02T21:44:16.794Z,297.10
2023-01-02T21:46:45.473Z,353.63
2023-01-02T21:49:14.039Z,412.98
2023-01-02T21:51:42.733Z,525.80
2023-01-02T21:54:11.390Z,370.25
2023-01-02T21:56:40.155Z,406.85
2023-01-02T21:59:08.878Z,435.05
2023-01-02T22:01:39.149Z,395.90
2023-01-02T22:04:08.095Z,441.55
2023-01-02T22:06:41.501Z,374.20
2023-01-02T22:09:25.419Z,417.70
2023-01-02T22:11:56.531Z,473.48
2023-01-02T22:14:26.932Z,361.33
2023-01-02T22:16:57.115Z,400.42
2023-01-02T22:19:26.456Z,381.73
2023-01-02T22:21:55.656Z,375.15
2023-01-02T22:24:26.299Z,454.35
2023-01-02T22:26:57.992Z,451.80
2023-01-02T22:29:51.586Z,509.05
2023-01-02T22:32:17.751Z,383.35
2023-01-02T22:34:46.777Z,344.33
2023-01-02T22:37:22.044Z,367.83
2023-01-02T22:39:51.361Z,388.65
2023-01-02T22:45:29.196Z,335.05
2023-01-02T22:48:02.801Z,413.25
2023-01-02T22:50:34.210Z,322.50
2023-01-02T22:53:02.797Z,324.33
2023-01-02T22:55:31.290Z,409.92
2023-01-02T22:58:00.351Z,427.70
2023-01-02T23:00:28.914Z,336.23
2023-01-02T23:02:58.163Z,403.95
2023-01-02T23:05:28.249Z,304.02
2023-01-02T23:07:56.985Z,362.05
2023-01-02T23:10:25.404Z,359.98
2023-01-02T23:12:54.151Z,454.92
2023-01-02T23:15:22.858Z,491.65
2023-01-02T23:18:08.599Z,346.58
2023-01-02T23:20:38.593Z,322.08
2023-01-02T23:23:07.559Z,375.20
2023-01-02T23:25:36.279Z,365.85
2023-01-02T23:28:04.961Z,351.45
2023-01-02T23:30:33.859Z,482.63
2023-01-02T23:33:02.727Z,340.55
2023-01-02T23:35:31.541Z,371.67
2023-01-02T23:38:01.479Z,390.08
2023-01-02T23:40:34.152Z,463.05
2023-01-02T23:43:02.996Z,375.08
2023-01-02T23:45:31.596Z,329.90
2023-01-02T23:48:00.323Z,361.45
2023-01-02T23:50:29.020Z,330.63
2023-01-02T23:52:57.485Z,395.23
2023-01-02T23:55:27.490Z,446.30
2023-01-02T23:57:56.217Z,455.27
